Time;durP1;ratioP1;P1;durP2;ratioP2;P2;SDS_P1;SDS_P2;PMS_P1;PMS_P2;Temp;Humidity;BMP_temperature;BMP_pressure;BME280_temperature;BME280_humidity;BME280_pressure;Samples;Min_cycle;Max_cycle;Signal;HPM_P1;HPM_P2
2021/01/19 00:00:29;;;;;;;7.50;4.20;;;;;;;3.82;80.12;100892.78;119901;1157;65036;-86
2021/01/19 00:02:55;;;;;;;12.27;6.83;;;;;;;3.85;79.67;100895.17;120456;1157;63802;-87
2021/01/19 00:05:22;;;;;;;9.67;3.90;;;;;;;3.86;80.05;100888.13;120114;1157;63971;-87
2021/01/19 00:07:50;;;;;;;14.40;6.90;;;;;;;3.86;80.83;100893.38;119690;1157;65030;-86
2021/01/19 00:10:24;;;;;;;9.83;6.03;;;;;;;3.85;80.57;100889.09;120088;1156;65043;-86
2021/01/19 00:13:37;;;;;;;9.05;5.95;;;;;;;3.83;80.37;100883.14;114293;1157;64683;-88
2021/01/19 00:16:43;;;;;;;9.03;5.60;;;;;;;3.85;80.01;100875.98;120439;1115;62722;-87
2021/01/19 00:19:30;;;;;;;13.73;6.87;;;;;;;3.89;79.20;100872.14;120343;1156;65193;-87
2021/01/19 00:22:19;;;;;;;12.03;5.93;;;;;;;3.89;80.52;100872.14;118316;1119;64508;-89
2021/01/19 00:27:55;;;;;;;16.20;7.15;;;;;;;3.90;80.78;100876.41;118492;1158;65127;-87
2021/01/19 00:30:21;;;;;;;10.60;8.50;;;;;;;3.88;80.36;100865.20;118158;1160;65235;-80
2021/01/19 00:32:48;;;;;;;10.87;6.03;;;;;;;3.88;81.74;100868.66;118193;1160;65324;-80
2021/01/19 00:35:14;;;;;;;16.67;8.27;;;;;;;3.85;81.95;100865.48;118380;1160;65330;-80
2021/01/19 00:37:40;;;;;;;13.83;8.80;;;;;;;3.80;81.58;100857.96;118213;1160;65326;-80
2021/01/19 00:40:07;;;;;;;12.70;7.70;;;;;;;3.75;82.76;100861.94;118754;1159;65198;-80
2021/01/19 00:42:33;;;;;;;13.20;7.03;;;;;;;3.68;82.76;100845.88;118375;1160;65137;-79
2021/01/19 00:44:59;;;;;;;12.97;8.90;;;;;;;3.63;82.85;100855.90;118121;1160;65216;-82
2021/01/19 00:47:26;;;;;;;15.03;8.63;;;;;;;3.60;82.37;100851.74;118153;1160;66216;-78
2021/01/19 00:49:52;;;;;;;12.27;7.50;;;;;;;3.57;83.10;100852.01;118225;1160;65219;-80
2021/01/19 00:52:18;;;;;;;13.85;7.60;;;;;;;3.54;83.79;100857.48;118164;1160;65264;-79
2021/01/19 00:54:44;;;;;;;11.80;9.25;;;;;;;3.50;84.30;100850.83;118288;1159;65163;-78
2021/01/19 00:57:10;;;;;;;16.97;9.37;;;;;;;3.46;83.32;100831.91;118171;1160;65232;-79
2021/01/19 00:59:37;;;;;;;14.23;9.17;;;;;;;3.45;83.71;100827.60;118198;1160;65204;-79
2021/01/19 01:02:03;;;;;;;16.20;10.17;;;;;;;3.46;84.00;100829.28;118181;1160;65349;-78
2021/01/19 01:04:29;;;;;;;16.27;8.87;;;;;;;3.44;83.83;100831.20;118157;1160;65375;-79
2021/01/19 01:06:55;;;;;;;15.97;10.63;;;;;;;3.43;84.33;100815.58;118260;1159;65160;-79
2021/01/19 01:09:22;;;;;;;14.17;8.93;;;;;;;3.44;84.88;100814.61;118180;1160;65312;-79
2021/01/19 01:11:48;;;;;;;21.37;10.13;;;;;;;3.45;84.79;100813.66;118364;1160;65324;-79
2021/01/19 01:14:14;;;;;;;16.73;10.53;;;;;;;3.46;84.32;100810.92;118197;1159;66222;-79
2021/01/19 01:16:41;;;;;;;12.55;8.10;;;;;;;3.47;83.99;100811.75;118188;1159;65151;-79
2021/01/19 01:19:09;;;;;;;14.55;9.80;;;;;;;3.49;83.68;100803.77;118267;1159;65178;-79
2021/01/19 01:21:36;;;;;;;16.95;9.85;;;;;;;3.49;84.34;100801.14;118286;1159;65315;-79
2021/01/19 01:24:05;;;;;;;20.77;11.47;;;;;;;3.52;84.54;100799.08;118218;1160;65070;-80
2021/01/19 01:26:31;;;;;;;20.80;11.55;;;;;;;3.54;83.95;100802.41;118734;1160;65242;-79
2021/01/19 01:28:57;;;;;;;13.73;8.43;;;;;;;3.54;84.09;100788.47;118299;1159;65173;-79
2021/01/19 01:31:23;;;;;;;16.10;10.13;;;;;;;3.55;83.22;100783.11;118252;1160;65242;-78
2021/01/19 01:33:50;;;;;;;12.03;8.73;;;;;;;3.54;83.45;100776.18;118271;1158;65351;-79
2021/01/19 01:36:16;;;;;;;13.50;7.35;;;;;;;3.55;82.80;100777.86;118533;1160;65115;-78
2021/01/19 01:38:43;;;;;;;18.12;10.75;;;;;;;3.55;83.47;100759.50;117960;1160;65273;-79
2021/01/19 01:41:21;;;;;;;15.83;10.30;;;;;;;3.57;83.30;100760.20;118403;1160;65100;-79
2021/01/19 01:43:49;;;;;;;15.73;8.43;;;;;;;3.57;83.56;100756.72;118392;1159;65180;-80
2021/01/19 01:46:18;;;;;;;11.67;7.33;;;;;;;3.57;82.59;100757.58;118387;1159;65031;-80
2021/01/19 01:48:47;;;;;;;15.67;9.57;;;;;;;3.58;83.35;100763.65;118512;1159;65414;-81
2021/01/19 01:51:15;;;;;;;19.57;10.60;;;;;;;3.58;82.90;100758.41;118612;1159;65070;-80
2021/01/19 01:53:42;;;;;;;11.90;8.50;;;;;;;3.60;83.45;100757.31;118472;1159;65127;-81
2021/01/19 01:56:10;;;;;;;11.53;8.07;;;;;;;3.59;83.51;100750.42;118333;1160;65315;-80
2021/01/19 01:58:38;;;;;;;14.13;8.53;;;;;;;3.62;82.93;100754.56;118272;1159;65204;-79
2021/01/19 02:01:05;;;;;;;11.73;6.53;;;;;;;3.64;83.39;100750.84;118349;1159;65082;-80
2021/01/19 02:03:33;;;;;;;29.40;8.80;;;;;;;3.66;83.18;100746.30;118349;1160;65134;-79
2021/01/19 02:05:59;;;;;;;14.53;8.20;;;;;;;3.68;82.11;100741.77;118310;1160;65356;-80
2021/01/19 02:09:02;;;;;;;17.07;10.33;;;;;;;3.68;82.50;100733.89;118189;1160;65185;-80
2021/01/19 02:11:47;;;;;;;14.07;8.43;;;;;;;3.68;82.83;100739.14;118153;1160;65246;-80
2021/01/19 02:15:05;;;;;;;14.65;9.50;;;;;;;3.69;81.97;100729.47;118373;1160;65185;-80
2021/01/19 02:17:47;;;;;;;7.03;4.50;;;;;;;3.73;82.72;100724.80;117947;1163;65211;-80
2021/01/19 02:20:44;;;;;;;18.00;10.13;;;;;;;3.73;82.71;100719.56;118275;1162;65214;-79
2021/01/19 02:23:30;;;;;;;11.30;7.13;;;;;;;3.72;82.93;100723.98;118149;1160;65030;-79
2021/01/19 02:26:47;;;;;;;11.53;7.20;;;;;;;3.71;82.45;100713.61;118256;1160;65273;-80
2021/01/19 02:29:25;;;;;;;16.25;5.90;;;;;;;3.70;83.21;100704.91;118266;1159;65127;-79
2021/01/19 02:32:04;;;;;;;11.93;7.07;;;;;;;3.70;82.29;100699.67;118215;1158;65308;-79
2021/01/19 02:34:36;;;;;;;12.30;7.03;;;;;;;3.70;83.58;100699.67;118486;1160;65127;-79
2021/01/19 02:37:19;;;;;;;10.57;5.53;;;;;;;3.68;83.19;100691.92;118413;1160;65051;-79
2021/01/19 02:39:55;;;;;;;9.63;5.13;;;;;;;3.67;83.89;100686.80;118682;1160;65865;-79
2021/01/19 02:42:26;;;;;;;12.57;8.03;;;;;;;3.66;83.42;100691.22;118348;1160;65241;-79
2021/01/19 02:44:55;;;;;;;9.83;7.20;;;;;;;3.68;83.49;100678.80;118292;1159;65248;-79
2021/01/19 02:47:21;;;;;;;11.97;6.80;;;;;;;3.70;82.75;100676.05;118363;1160;65043;-79
2021/01/19 02:49:48;;;;;;;12.13;6.97;;;;;;;3.69;83.34;100666.51;118145;1160;65226;-80
2021/01/19 02:52:15;;;;;;;8.60;5.95;;;;;;;3.71;82.68;100669.01;118420;1160;65187;-79
2021/01/19 02:54:43;;;;;;;11.77;8.10;;;;;;;3.71;82.86;100659.34;118308;1160;65136;-80
2021/01/19 02:57:25;;;;;;;11.57;5.77;;;;;;;3.73;81.84;100661.84;118480;1157;65252;-80
2021/01/19 03:00:13;;;;;;;7.80;5.10;;;;;;;3.74;82.30;100653.84;118522;1157;65108;-78
2021/01/19 03:02:44;;;;;;;7.97;5.93;;;;;;;3.75;82.94;100659.92;118683;1157;65149;-78
2021/01/19 03:05:14;;;;;;;7.73;5.27;;;;;;;3.75;81.47;100697.47;118365;1157;65204;-80
2021/01/19 03:07:44;;;;;;;10.30;6.37;;;;;;;3.79;81.65;100653.45;118470;1157;65193;-79
2021/01/19 03:10:12;;;;;;;9.60;5.20;;;;;;;3.83;81.31;100649.59;119286;1157;65137;-80
2021/01/19 03:12:42;;;;;;;9.25;5.20;;;;;;;3.85;82.37;100660.80;118954;1157;65146;-79
2021/01/19 03:15:09;;;;;;;7.00;4.07;;;;;;;3.85;81.70;100643.25;118695;1157;65636;-79
2021/01/19 03:17:35;;;;;;;8.03;5.23;;;;;;;3.89;81.46;100635.95;118275;1155;65136;-79
2021/01/19 03:20:04;;;;;;;9.50;5.53;;;;;;;3.93;80.80;100655.72;118452;1155;65139;-79
2021/01/19 03:22:31;;;;;;;7.83;4.50;;;;;;;3.95;80.73;100642.44;119221;1157;65159;-82
2021/01/19 03:24:58;;;;;;;6.65;4.55;;;;;;;3.94;80.41;100641.61;118321;1157;65159;-83
2021/01/19 03:27:24;;;;;;;8.87;4.90;;;;;;;3.97;81.52;100643.14;118244;1157;65134;-79
2021/01/19 03:29:50;;;;;;;8.98;5.53;;;;;;;3.99;80.33;100628.09;118611;1157;65214;-78
2021/01/19 03:32:17;;;;;;;7.03;4.77;;;;;;;4.01;81.34;100628.78;118355;1157;65223;-80
2021/01/19 03:34:43;;;;;;;8.80;6.00;;;;;;;4.00;80.96;100627.97;118319;1157;65625;-79
2021/01/19 03:37:09;;;;;;;8.10;4.90;;;;;;;4.00;80.35;100624.52;119037;1157;65076;-79
2021/01/19 03:39:35;;;;;;;9.20;4.00;;;;;;;3.99;81.24;100626.29;118286;1157;66228;-79
2021/01/19 03:42:01;;;;;;;8.47;5.00;;;;;;;4.01;80.00;100613.86;118208;1157;65097;-79
2021/01/19 03:44:28;;;;;;;6.57;4.10;;;;;;;4.02;80.07;100609.47;118626;1157;65210;-79
2021/01/19 03:46:54;;;;;;;9.57;4.90;;;;;;;4.03;80.08;100601.44;118282;1157;65179;-79
2021/01/19 03:49:20;;;;;;;7.70;4.37;;;;;;;4.02;80.92;100599.79;118759;1157;65133;-79
2021/01/19 03:51:46;;;;;;;6.70;4.73;;;;;;;4.01;81.13;100598.11;118541;1157;65159;-88
2021/01/19 03:54:13;;;;;;;8.20;4.77;;;;;;;4.00;80.28;100582.52;118371;1156;65271;-78
2021/01/19 03:56:39;;;;;;;10.20;6.60;;;;;;;4.01;80.30;100582.36;118516;1157;65069;-82
2021/01/19 03:59:05;;;;;;;10.53;5.17;;;;;;;4.02;80.77;100585.84;118559;1157;65103;-79
2021/01/19 04:01:32;;;;;;;12.13;5.57;;;;;;;4.02;81.15;100578.79;118566;1157;65051;-78
2021/01/19 04:03:58;;;;;;;5.37;4.42;;;;;;;4.03;79.84;100569.11;118614;1157;65223;-79
2021/01/19 04:06:24;;;;;;;8.30;5.20;;;;;;;4.03;79.92;100569.94;118557;1157;65145;-79
2021/01/19 04:08:51;;;;;;;8.40;5.80;;;;;;;4.02;80.66;100562.22;118258;1157;65219;-79
2021/01/19 04:11:18;;;;;;;8.15;5.50;;;;;;;4.03;80.71;100554.19;118976;1157;65502;-78
2021/01/19 04:13:44;;;;;;;8.98;5.60;;;;;;;4.04;80.66;100563.73;118594;1157;65162;-78
2021/01/19 04:16:10;;;;;;;6.00;4.90;;;;;;;4.05;79.86;100547.01;118394;1157;65120;-79
2021/01/19 04:18:37;;;;;;;6.95;4.50;;;;;;;4.06;79.89;100543.43;118266;1157;65140;-79
2021/01/19 04:21:03;;;;;;;6.57;5.40;;;;;;;4.07;80.54;100541.63;118380;1157;65143;-81
2021/01/19 04:23:30;;;;;;;6.13;4.27;;;;;;;4.07;79.80;100547.70;118547;1156;65135;-80
2021/01/19 04:25:56;;;;;;;5.63;3.73;;;;;;;4.08;80.87;100541.50;118579;1156;65223;-79
2021/01/19 04:28:22;;;;;;;6.93;4.67;;;;;;;4.09;80.65;100532.64;118943;1157;65529;-78
2021/01/19 04:30:49;;;;;;;8.50;4.60;;;;;;;4.06;81.93;100524.23;118926;1157;65088;-80
2021/01/19 04:33:15;;;;;;;5.17;4.00;;;;;;;4.04;81.23;100521.73;118426;1157;65036;-78
2021/01/19 04:35:44;;;;;;;5.87;4.00;;;;;;;3.98;82.54;100509.16;118276;1157;65091;-79
2021/01/19 04:38:10;;;;;;;6.45;3.90;;;;;;;3.97;82.03;100502.23;118366;1155;65152;-78
2021/01/19 04:40:37;;;;;;;8.40;4.03;;;;;;;3.96;81.70;100500.59;118456;1157;65268;-79
2021/01/19 04:43:04;;;;;;;6.87;4.57;;;;;;;3.94;83.35;100502.52;118583;1157;65163;-80
2021/01/19 04:45:34;;;;;;;5.33;2.97;;;;;;;3.91;82.38;100494.94;118587;1157;66217;-78
2021/01/19 04:48:01;;;;;;;4.87;3.63;;;;;;;3.90;82.89;100492.44;118845;1156;65137;-79
2021/01/19 04:50:29;;;;;;;9.20;5.40;;;;;;;3.89;82.88;100483.75;118275;1157;65265;-79
2021/01/19 04:52:59;;;;;;;8.63;5.37;;;;;;;3.88;82.67;100476.82;118621;1156;65072;-80
2021/01/19 04:55:27;;;;;;;5.75;4.50;;;;;;;3.83;82.74;100465.92;118266;1157;65107;-79
2021/01/19 04:58:00;;;;;;;6.90;4.53;;;;;;;3.76;84.01;100470.03;118258;1157;65117;-79
2021/01/19 05:00:29;;;;;;;7.20;3.40;;;;;;;3.70;84.28;100467.95;118354;1157;65146;-78
2021/01/19 05:03:02;;;;;;;9.60;5.00;;;;;;;3.65;83.63;100458.70;118507;1157;65252;-81
2021/01/19 05:05:37;;;;;;;8.03;4.53;;;;;;;3.61;83.53;100459.96;118753;1157;65113;-80
2021/01/19 05:08:16;;;;;;;7.53;4.97;;;;;;;3.57;83.87;100453.33;118459;1157;65552;-80
2021/01/19 05:11:09;;;;;;;4.83;3.13;;;;;;;3.54;85.00;100442.27;118719;1155;65233;-80
2021/01/19 05:13:55;;;;;;;6.33;3.77;;;;;;;3.49;84.12;100445.30;118484;1157;65399;-80
2021/01/19 05:16:28;;;;;;;6.87;3.63;;;;;;;3.45;85.41;100433.42;118797;1155;65199;-81
2021/01/19 05:18:57;;;;;;;5.33;3.60;;;;;;;3.44;84.23;100416.02;118405;1156;65164;-79
2021/01/19 05:21:24;;;;;;;6.37;4.30;;;;;;;3.42;84.37;100412.70;119314;1157;65069;-80
2021/01/19 05:23:50;;;;;;;8.50;4.80;;;;;;;3.39;84.93;100413.80;118748;1157;65133;-80
2021/01/19 05:26:19;;;;;;;6.10;4.50;;;;;;;3.37;84.36;100404.42;118710;1157;65142;-79
2021/01/19 05:28:49;;;;;;;4.97;2.70;;;;;;;3.33;84.80;100395.16;118279;1157;65060;-80
2021/01/19 05:31:16;;;;;;;7.07;3.63;;;;;;;3.32;84.52;100396.14;118444;1157;65145;-79
2021/01/19 05:34:04;;;;;;;4.70;3.17;;;;;;;3.31;84.78;100381.36;118685;1157;65142;-79
2021/01/19 05:36:41;;;;;;;3.53;2.50;;;;;;;3.30;84.92;100382.34;118753;1157;65184;-79
2021/01/19 05:39:19;;;;;;;3.30;2.57;;;;;;;3.28;83.77;100369.36;118470;1157;66450;-79
2021/01/19 05:41:51;;;;;;;4.57;2.63;;;;;;;3.28;84.45;100363.30;118532;1157;67494;-79
2021/01/19 05:44:18;;;;;;;8.10;2.60;;;;;;;3.29;83.44;100355.27;118396;1157;66237;-79
2021/01/19 05:47:03;;;;;;;3.20;2.05;;;;;;;3.31;82.99;100350.72;118400;1157;65677;-79
2021/01/19 05:49:38;;;;;;;4.67;2.12;;;;;;;3.30;82.86;100353.50;118603;1157;65178;-79
2021/01/19 05:52:08;;;;;;;;;;;;;;;3.29;83.77;100349.20;118642;1157;65617;-79
2021/01/19 05:54:39;;;;;;;2.80;1.57;;;;;;;3.29;82.84;100334.30;118284;1157;65127;-79
2021/01/19 05:57:10;;;;;;;3.67;2.33;;;;;;;3.30;82.49;100335.16;118367;1157;65507;-79
2021/01/19 05:59:40;;;;;;;5.05;2.05;;;;;;;3.29;82.29;100318.57;118752;1157;65130;-79
2021/01/19 06:02:13;;;;;;;2.80;2.00;;;;;;;3.31;82.12;100319.27;118959;1157;65127;-82
2021/01/19 06:04:43;;;;;;;3.50;2.10;;;;;;;3.30;82.44;100308.94;118547;1157;65562;-81
2021/01/19 06:07:11;;;;;;;4.90;2.33;;;;;;;3.30;82.76;100298.45;118297;1157;65145;-79
2021/01/19 06:09:38;;;;;;;3.80;1.80;;;;;;;3.33;82.31;100300.78;118425;1157;65146;-79
2021/01/19 06:12:06;;;;;;;3.60;2.10;;;;;;;3.37;81.83;100296.92;118350;1157;65231;-79
2021/01/19 06:14:33;;;;;;;3.35;1.90;;;;;;;3.38;81.67;100301.19;118651;1157;65124;-83
2021/01/19 06:17:08;;;;;;;4.63;1.60;;;;;;;3.39;80.94;100297.62;118649;1156;65105;-80
2021/01/19 06:19:36;;;;;;;4.00;1.90;;;;;;;3.39;80.47;100282.70;118670;1157;65264;-79
2021/01/19 06:22:14;;;;;;;7.07;2.87;;;;;;;3.44;80.32;100282.28;118337;1157;65191;-78
2021/01/19 06:24:46;;;;;;;3.80;1.70;;;;;;;3.46;81.18;100275.11;118663;1155;65197;-80
2021/01/19 06:27:25;;;;;;;4.30;1.80;;;;;;;3.46;80.46;100272.48;118518;1157;65216;-79
2021/01/19 06:30:00;;;;;;;7.60;2.43;;;;;;;3.43;81.27;100264.91;118740;1155;65130;-79
2021/01/19 06:32:35;;;;;;;3.03;1.93;;;;;;;3.43;81.11;100267.53;118290;1156;65146;-79
2021/01/19 06:35:13;;;;;;;2.77;2.03;;;;;;;3.42;81.57;100255.38;118665;1157;65085;-77
2021/01/19 06:37:41;;;;;;;7.60;2.15;;;;;;;3.39;81.63;100247.80;118509;1157;65219;-79
2021/01/19 06:40:11;;;;;;;2.73;1.60;;;;;;;3.36;81.85;100240.20;118824;1157;65072;-78
2021/01/19 06:42:39;;;;;;;3.27;1.90;;;;;;;3.35;81.15;100233.31;118753;1157;65485;-79
2021/01/19 06:45:11;;;;;;;2.83;1.73;;;;;;;3.34;81.09;100226.42;118446;1157;65271;-80
2021/01/19 06:47:47;;;;;;;3.77;1.90;;;;;;;3.32;81.08;100221.31;119044;1157;65083;-79
2021/01/19 06:50:13;;;;;;;2.07;1.30;;;;;;;3.32;81.16;100215.25;118467;1157;65223;-79
2021/01/19 06:52:41;;;;;;;4.70;1.50;;;;;;;3.28;81.53;100211.25;118425;1157;65236;-79
2021/01/19 06:55:31;;;;;;;2.00;1.10;;;;;;;3.26;82.14;100201.72;119223;1157;65104;-81
2021/01/19 06:58:08;;;;;;;5.60;2.47;;;;;;;3.26;82.28;100199.09;118722;1157;65127;-79
2021/01/19 07:00:40;;;;;;;4.30;1.90;;;;;;;3.26;81.91;100188.61;118420;1157;65100;-79
2021/01/19 07:03:18;;;;;;;2.27;1.33;;;;;;;3.25;81.73;100186.97;118987;1157;65169;-80
2021/01/19 07:06:00;;;;;;;4.13;1.10;;;;;;;3.23;82.12;100183.66;118438;1155;65636;-79
2021/01/19 07:08:58;;;;;;;4.60;1.73;;;;;;;3.23;82.56;100170.56;118798;1157;65156;-86
2021/01/19 07:12:06;;;;;;;4.13;1.40;;;;;;;3.23;82.83;100159.22;118536;1157;65107;-80
2021/01/19 07:14:52;;;;;;;2.33;1.03;;;;;;;3.21;82.14;100138.42;119363;1157;63731;-81
2021/01/19 07:17:31;;;;;;;2.63;1.17;;;;;;;3.21;82.07;100143.66;119013;1157;65141;-79
2021/01/19 07:20:01;;;;;;;3.80;1.50;;;;;;;3.20;82.65;100138.55;118907;1157;65227;-79
2021/01/19 07:22:46;;;;;;;4.67;1.70;;;;;;;3.20;83.02;100141.99;118492;1157;65169;-80
2021/01/19 07:25:13;;;;;;;6.75;1.45;;;;;;;3.21;83.47;100125.31;118434;1157;65216;-80
2021/01/19 07:27:39;;;;;;;4.73;1.57;;;;;;;3.17;82.60;100117.88;118571;1157;65161;-81
2021/01/19 07:30:08;;;;;;;2.53;1.00;;;;;;;3.15;82.39;100118.02;118518;1157;65132;-80
2021/01/19 07:32:37;;;;;;;3.47;1.27;;;;;;;3.16;82.84;100114.41;118882;1157;65200;-79
2021/01/19 07:35:06;;;;;;;5.50;1.70;;;;;;;3.16;83.15;100109.16;118987;1157;65259;-79
2021/01/19 07:37:34;;;;;;;3.53;1.43;;;;;;;3.15;82.21;100104.09;118495;1157;65200;-81
2021/01/19 07:40:02;;;;;;;1.83;1.03;;;;;;;3.12;82.64;100089.45;118814;1157;65115;-78
2021/01/19 07:42:33;;;;;;;5.80;1.75;;;;;;;3.11;82.73;100094.85;118682;1157;65149;-81
2021/01/19 07:45:01;;;;;;;6.63;1.53;;;;;;;3.11;83.61;100089.61;118530;1157;64998;-78
2021/01/19 07:47:44;;;;;;;2.73;1.80;;;;;;;3.08;82.95;100089.88;118471;1157;65248;-78
2021/01/19 07:50:14;;;;;;;5.90;1.70;;;;;;;3.06;83.98;100080.38;118711;1157;65277;-81
2021/01/19 07:52:44;;;;;;;6.90;1.70;;;;;;;3.02;83.85;100086.05;119094;1157;65143;-82
2021/01/19 07:55:21;;;;;;;3.20;1.07;;;;;;;3.00;83.60;100088.80;118613;1157;65162;-79
2021/01/19 07:57:50;;;;;;;3.93;1.30;;;;;;;2.98;84.70;100072.39;118562;1157;65113;-77
2021/01/19 08:00:27;;;;;;;5.75;1.20;;;;;;;2.98;84.15;100066.34;118504;1157;65149;-77
2021/01/19 08:03:07;;;;;;;4.33;0.90;;;;;;;2.93;85.03;100064.11;119001;1157;65229;-78
2021/01/19 08:05:34;;;;;;;4.30;2.13;;;;;;;2.91;85.05;100052.12;118494;1157;65110;-84
2021/01/19 08:08:00;;;;;;;7.83;1.10;;;;;;;2.91;85.00;100046.89;118515;1157;65948;-79
2021/01/19 08:10:34;;;;;;;3.63;1.80;;;;;;;2.87;85.63;100030.65;118524;1157;65133;-83
2021/01/19 08:13:02;;;;;;;6.20;1.57;;;;;;;2.85;85.55;100041.26;118716;1157;65110;-85
2021/01/19 08:15:33;;;;;;;1.73;1.07;;;;;;;2.84;86.39;100028.30;118674;1157;65401;-81
2021/01/19 08:18:02;;;;;;;6.80;1.57;;;;;;;2.81;86.69;100025.97;118507;1157;65098;-80
2021/01/19 08:20:46;;;;;;;10.65;1.60;;;;;;;2.77;86.30;100025.42;118536;1157;65031;-81
2021/01/19 08:23:16;;;;;;;4.45;1.45;;;;;;;2.78;86.34;100010.52;118440;1157;65139;-80
2021/01/19 08:25:44;;;;;;;4.95;1.70;;;;;;;2.77;87.13;100009.70;118857;1157;65136;-82
2021/01/19 08:28:13;;;;;;;2.70;1.25;;;;;;;2.75;86.84;99998.54;118817;1157;65274;-82
2021/01/19 08:30:40;;;;;;;5.33;1.83;;;;;;;2.75;87.10;99998.54;118627;1157;66225;-81
2021/01/19 08:33:07;;;;;;;5.37;1.50;;;;;;;2.75;87.35;99995.92;119054;1157;66212;-82
2021/01/19 08:35:38;;;;;;;3.03;1.43;;;;;;;2.74;87.01;99989.05;118475;1157;66195;-83
2021/01/19 08:38:04;;;;;;;2.25;1.45;;;;;;;2.74;87.51;99989.05;118439;1157;65133;-79
2021/01/19 08:40:34;;;;;;;6.73;1.70;;;;;;;2.74;87.10;99978.57;118640;1157;65150;-79
2021/01/19 08:43:03;;;;;;;2.53;1.87;;;;;;;2.76;86.96;99976.64;118360;1155;65223;-79
2021/01/19 08:45:34;;;;;;;4.10;2.00;;;;;;;2.79;86.73;99970.28;118420;1155;65130;-77
2021/01/19 08:48:05;;;;;;;6.05;1.80;;;;;;;2.80;87.02;99966.68;118162;1157;65146;-75
2021/01/19 08:50:36;;;;;;;6.17;1.83;;;;;;;2.81;87.19;99963.92;118175;1157;65146;-75
2021/01/19 08:53:10;;;;;;;4.53;1.63;;;;;;;2.82;87.52;99949.03;118457;1157;65265;-75
2021/01/19 08:55:36;;;;;;;4.05;1.80;;;;;;;2.83;87.67;99941.03;118194;1157;65139;-73
2021/01/19 08:58:03;;;;;;;2.03;1.60;;;;;;;2.83;86.72;99969.84;118200;1157;65229;-72
2021/01/19 09:00:37;;;;;;;7.47;1.87;;;;;;;2.84;86.62;99960.19;118186;1157;65140;-74
2021/01/19 09:03:14;;;;;;;3.07;1.37;;;;;;;2.85;86.84;99949.58;118241;1157;65169;-75
2021/01/19 09:06:02;;;;;;;3.97;1.30;;;;;;;2.86;86.80;99945.97;118073;1157;65253;-74
2021/01/19 09:08:29;;;;;;;3.40;1.40;;;;;;;2.88;87.86;99937.16;118182;1157;65155;-76
2021/01/19 09:11:07;;;;;;;2.30;1.40;;;;;;;2.84;87.98;99942.67;118416;1157;65127;-80
2021/01/19 09:13:50;;;;;;;4.73;1.43;;;;;;;2.88;88.14;99939.78;118203;1157;65102;-74
2021/01/19 09:16:23;;;;;;;5.87;1.50;;;;;;;2.86;87.02;99945.97;118406;1157;65141;-75
2021/01/19 09:18:55;;;;;;;3.05;1.20;;;;;;;2.88;86.89;99943.22;118417;1155;65618;-76
2021/01/19 09:21:23;;;;;;;4.67;1.33;;;;;;;2.88;87.06;99934.55;118363;1157;65018;-74
2021/01/19 09:23:49;;;;;;;2.20;1.40;;;;;;;2.86;87.16;99932.87;118098;1157;65243;-74
2021/01/19 09:26:15;;;;;;;5.75;1.70;;;;;;;2.87;87.14;99936.34;118271;1157;63983;-77
2021/01/19 09:28:41;;;;;;;3.20;0.90;;;;;;;2.86;87.20;99930.26;118247;1157;65200;-76
2021/01/19 09:31:16;;;;;;;1.90;1.30;;;;;;;2.88;87.75;99921.45;118597;1156;65170;-76
2021/01/19 09:33:46;;;;;;;2.43;1.20;;;;;;;2.85;87.41;99917.33;118408;1155;65137;-74
2021/01/19 09:36:15;;;;;;;2.20;0.83;;;;;;;2.82;87.87;99921.03;118198;1157;65230;-73
2021/01/19 09:38:43;;;;;;;2.23;1.00;;;;;;;2.81;87.73;99919.39;118337;1157;65107;-77
2021/01/19 09:41:15;;;;;;;3.63;1.13;;;;;;;2.79;88.20;99917.90;118031;1157;65244;-75
2021/01/19 09:43:45;;;;;;;2.15;0.85;;;;;;;2.78;88.17;99914.43;118688;1157;65207;-75
2021/01/19 09:46:12;;;;;;;4.53;1.10;;;;;;;2.75;88.59;99904.25;118391;1157;65089;-79
2021/01/19 09:48:46;;;;;;;3.53;1.23;;;;;;;2.73;88.32;99913.23;118482;1156;65189;-75
2021/01/19 09:51:12;;;;;;;3.05;1.30;;;;;;;2.71;88.71;99888.98;118544;1157;65088;-78
2021/01/19 09:53:39;;;;;;;5.50;1.40;;;;;;;2.71;88.25;99895.03;118507;1157;65146;-78
2021/01/19 09:56:16;;;;;;;2.60;0.93;;;;;;;2.70;88.37;99884.69;118399;1155;65143;-76
2021/01/19 09:58:43;;;;;;;3.97;1.33;;;;;;;2.69;88.02;99877.83;118351;1157;65153;-76
2021/01/19 10:01:23;;;;;;;1.75;1.00;;;;;;;2.68;88.10;99882.24;118466;1157;65121;-77
2021/01/19 10:03:50;;;;;;;3.10;1.03;;;;;;;2.65;88.69;99885.13;118191;1157;65127;-76
2021/01/19 10:06:21;;;;;;;2.13;1.07;;;;;;;2.63;88.21;99884.45;118193;1155;65223;-73
2021/01/19 10:08:54;;;;;;;2.35;0.85;;;;;;;2.61;86.82;99865.44;118384;1156;65306;-79
2021/01/19 10:11:34;;;;;;;3.07;1.20;;;;;;;2.60;87.86;99885.56;118411;1157;65104;-74
2021/01/19 10:14:17;;;;;;;1.97;0.90;;;;;;;2.58;88.19;99871.80;118293;1157;65063;-79
2021/01/19 10:16:53;;;;;;;2.63;1.03;;;;;;;2.53;87.82;99868.80;118313;1157;65130;-78
2021/01/19 10:19:26;;;;;;;2.53;1.07;;;;;;;2.54;88.44;99848.66;118595;1157;65155;-76
2021/01/19 10:21:57;;;;;;;2.70;1.15;;;;;;;2.53;88.19;99845.23;118802;1156;65223;-75
2021/01/19 10:24:25;;;;;;;1.93;0.87;;;;;;;2.55;88.56;99838.05;118284;1157;65065;-75
2021/01/19 10:27:10;;;;;;;3.43;1.07;;;;;;;2.54;87.67;99840.81;118603;1157;65161;-79
2021/01/19 10:29:42;;;;;;;2.20;0.90;;;;;;;2.52;87.51;99827.86;118361;1157;65224;-78
2021/01/19 10:32:11;;;;;;;3.20;1.13;;;;;;;2.50;87.43;99824.56;118226;1157;65133;-75
2021/01/19 10:34:47;;;;;;;1.47;0.90;;;;;;;2.51;87.61;99822.75;118499;1155;65154;-78
2021/01/19 10:37:15;;;;;;;2.33;0.93;;;;;;;2.53;88.06;99807.73;118265;1157;65136;-76
2021/01/19 10:39:48;;;;;;;1.60;0.90;;;;;;;2.55;87.68;99811.03;118370;1157;65587;-77
2021/01/19 10:42:33;;;;;;;3.95;0.60;;;;;;;2.54;87.53;99804.16;118260;1157;65210;-78
2021/01/19 10:45:03;;;;;;;0.97;0.70;;;;;;;2.52;87.72;99799.06;118602;1157;65156;-78
2021/01/19 10:47:40;;;;;;;1.30;0.83;;;;;;;2.52;88.22;99785.97;118121;1157;65270;-76
2021/01/19 10:50:14;;;;;;;1.40;0.80;;;;;;;2.53;88.36;99795.48;118355;1157;65137;-79
2021/01/19 10:52:40;;;;;;;1.65;1.00;;;;;;;2.56;87.92;99783.89;118422;1155;65117;-80
2021/01/19 10:55:08;;;;;;;1.65;0.60;;;;;;;2.58;88.88;99776.72;118420;1157;65133;-76
2021/01/19 10:57:35;;;;;;;2.13;0.90;;;;;;;2.57;88.20;99781.14;118440;1157;65138;-78
2021/01/19 11:00:04;;;;;;;1.33;0.80;;;;;;;2.58;88.08;99781.95;118104;1157;66236;-74
2021/01/19 11:02:30;;;;;;;3.25;0.80;;;;;;;2.58;88.73;99780.16;118470;1157;65146;-78
2021/01/19 11:04:56;;;;;;;2.43;0.87;;;;;;;2.59;88.16;99770.50;118570;1156;65056;-76
2021/01/19 11:07:50;;;;;;;1.30;0.63;;;;;;;2.60;87.53;99766.92;118049;1157;65140;-77
2021/01/19 11:10:19;;;;;;;1.07;0.70;;;;;;;2.61;88.41;99755.47;118410;1155;65063;-77
2021/01/19 11:12:46;;;;;;;1.30;0.80;;;;;;;2.61;87.45;99752.84;118238;1157;65021;-76
2021/01/19 11:15:14;;;;;;;1.13;0.70;;;;;;;2.61;88.21;99760.70;118767;1155;65162;-80
2021/01/19 11:17:41;;;;;;;0.90;0.63;;;;;;;2.63;87.75;99745.67;118129;1157;65137;-76
2021/01/19 11:20:10;;;;;;;1.10;0.60;;;;;;;2.65;88.11;99748.97;118318;1155;65098;-75
2021/01/19 11:22:37;;;;;;;0.93;0.67;;;;;;;2.66;88.03;99740.16;118203;1157;65085;-75
2021/01/19 11:25:05;;;;;;;1.10;0.50;;;;;;;2.65;88.23;99728.84;118408;1155;65126;-79
2021/01/19 11:27:31;;;;;;;5.70;0.60;;;;;;;2.67;88.28;99731.31;118487;1155;65047;-78
2021/01/19 11:29:57;;;;;;;0.95;0.55;;;;;;;2.69;86.80;99733.80;118535;1155;65168;-81
2021/01/19 11:32:25;;;;;;;1.20;0.50;;;;;;;2.73;87.77;99720.25;118461;1157;65133;-76
2021/01/19 11:34:51;;;;;;;0.55;0.40;;;;;;;2.76;87.57;99719.98;118424;1155;65103;-75
2021/01/19 11:37:18;;;;;;;1.87;0.53;;;;;;;2.77;87.27;99710.31;118167;1156;65191;-78
2021/01/19 11:39:44;;;;;;;1.30;0.53;;;;;;;2.79;87.75;99703.95;118257;1157;65130;-75
2021/01/19 11:42:10;;;;;;;0.60;0.40;;;;;;;2.78;86.21;99704.91;118234;1157;65462;-74
2021/01/19 11:44:37;;;;;;;0.33;0.30;;;;;;;2.78;86.20;99691.81;118161;1157;65208;-79
2021/01/19 11:47:03;;;;;;;0.40;0.40;;;;;;;2.79;86.50;99698.71;118376;1157;65133;-76
2021/01/19 11:49:46;;;;;;;0.50;0.20;;;;;;;2.77;86.46;99705.89;118215;1157;65175;-75